首页
METAR-TAF:

METAR-TAF

机场 :

Mackenzie, 不列颠哥伦比亚, 加拿大

纬度: 55-18N, 经度: 123-08W, 海拔: 695米

当前天气观测

该预报发布于18分钟前的20:00 UTC
风速12节,风向东南,有时为19节阵风
温度 6°C
湿度 87%
气压 999 hPa
能見度: 14.5公里
阴天层高于1200英尺

METAR: CYZY 172000Z AUTO 14012G19KT 9SM OVC012 06/04 A2951 RMK SLP017

时间: 12:18 (20:18 UTC)

预报

该预报发布于1小时和40分钟前的18:38 UTC
预报有效从17日的 19点(UTC)到 18日的 07点(UTC)
风速10节,风向南转南东
能見度: 10公里
散云层高于1200英尺
阴天层高于2500英尺
短暂存在
从 17日的 19点(UTC)到 18日的 07点(UTC)
能見度: 10公里
阴天层高于1200英尺
小阵雨
成为
从 17日的 22点(UTC)到 17日的 24点(UTC)
风速10节,风向西南

TAF: CYZY 171838Z 1719/1807 16010KT P6SM SCT012 OVC025 TEMPO 1719/1807 P6SM -SHRA OVC012 BECMG 1722/1724 22010KT RMK FCST BASED ON AUTO OBS. NXT FCST BY 180100Z

超过4000个机场的气象观测和天气预报(METAR&TAF报告)。

可查询的气象台以黄色和红色小点在地图上表示。

将鼠标移到小点上方,可查看气象台名称。

然后点击查看天气观测和预报。

如需切换地图:点击带黑十字的绿色按钮放大地图;点击带横线的绿色按钮缩小地图;或者点击绿色箭头查看邻近地区的地图。


METAR-TAF: